Weather at Kijabe Airport

Public forecast

Using degrees Celsius for public forecast. Weather courtesy of forecast.io.

Closest aviation weather report (METAR) to Kijabe Airport

Closest report is Nairobi Wilson Airport, 25.7 nm (47.5 km) SSE.

2024/05/19 20:00 (retrieved 55 minutes ago)

HKNW 192000Z 00000KT 9999 SCT021 19/15 Q1024

Closest aviation forecast (TAF) to Kijabe Airport

Closest forecast is Nairobi Wilson Airport, 25.7 nm (47.5 km) SSE.

2024/05/19 18:39 (retrieved 2 hours ago)

TAF TAF HKNW 191800Z 1918/2018 00000KT 9999 BKN018 BECMG 2006/2009 21010KT BKN026